Sincerity Ace — 3FFD7 — position and weather

sailwx.info

Track history (hours):
 
Tides and Currents Weather Stations Pressure Air Temp Water Temp Dewpoint Dewpoint Depression Visibility Wind Speed Wind Dir Waves Ship Positions

Sincerity Ace

Last reported at 2015-May-27 18:12 UTC. Time now 2015-May-28 16:10 UTC.
Position N 25°46' W 079°31'.

Length 200 m; draft 8.4 m.

Type: Cargo ship. MMSI: 351690000.

Date/timePositionNaut miles runAvg speedWind from/ knotsBaromVisibWave heightAir tempDewpointWater temp
2015-May-27 18:12N 25°46' W 079°31'1015.5
2015-May-27 17:33N 25°56' W 079°29'1515.4
2015-May-27 16:33N 26°11' W 079°26'317 9.0
2015-May-26 05:31N 31°08' W 081°32'  
2015-May-23 12:11N 35°13' W 074°54'17115.9
2015-May-23 01:26N 37°53' W 076°09'5714.4
2015-May-22 21:26N 38°49' W 076°24'2513.2
2015-May-22 19:33N 39°13' W 076°32'1 1.0
2015-May-22 18:32N 39°14' W 076°32'0 0.0
2015-May-22 17:32N 39°14' W 076°32'0 0.0
2015-May-22 16:33N 39°14' W 076°32'0 0.0
2015-May-22 15:32N 39°14' W 076°32'0 0.0
2015-May-22 14:32N 39°14' W 076°32'0 0.0
2015-May-22 13:32N 39°14' W 076°32'0 0.0
2015-May-22 12:32N 39°14' W 076°32'0 0.0
2015-May-22 11:32N 39°14' W 076°32'0 0.0
2015-May-22 10:32N 39°14' W 076°32'0 0.0
2015-May-22 09:32N 39°14' W 076°32'0 0.0
2015-May-22 08:32N 39°14' W 076°32'0 0.0
2015-May-22 07:29N 39°14' W 076°32'0 0.0
2015-May-22 06:32N 39°14' W 076°32'0 0.0
2015-May-22 05:29N 39°14' W 076°32'0 0.0
2015-May-22 04:32N 39°14' W 076°32'0 0.0
2015-May-22 03:32N 39°14' W 076°32'0 0.0
2015-May-22 02:32N 39°14' W 076°32'0 0.0
2015-May-22 01:29N 39°14' W 076°32'0 0.0
2015-May-22 00:26N 39°14' W 076°32'0 0.0
2015-May-21 23:32N 39°14' W 076°32'4 3.6
2015-May-21 22:33N 39°12' W 076°29'15 2.9
2015-May-21 17:23N 38°57' W 076°24'0 0.0
2015-May-21 12:32N 38°57' W 076°24'0 0.0
2015-May-21 11:17N 38°57' W 076°24'0 0.0
2015-May-21 10:26N 38°57' W 076°24'0 0.0
2015-May-21 09:26N 38°57' W 076°24'0 0.0
2015-May-21 08:29N 38°57' W 076°24'0 0.0
2015-May-21 07:14N 38°57' W 076°24'0 0.0
2015-May-21 05:32N 38°57' W 076°24'0 0.0
2015-May-21 04:05N 38°57' W 076°24'0 0.0
2015-May-21 03:23N 38°57' W 076°24'0 0.0
2015-May-21 01:29N 38°57' W 076°24'0 0.0
2015-May-20 04:29N 38°57' W 076°24'0 0.0
2015-May-20 03:32N 38°57' W 076°24'0 0.0
2015-May-20 02:32N 38°57' W 076°24'0 0.0
2015-May-20 01:32N 38°57' W 076°24'0 0.0
2015-May-20 00:32N 38°57' W 076°24'4 3.8
2015-May-19 23:33N 39°01' W 076°22'1211.9
2015-May-19 22:33N 39°12' W 076°29'5 4.4
2015-May-19 21:31N 39°14' W 076°34'0 0.0
2015-May-19 20:31N 39°14' W 076°34'0 0.0
2015-May-19 19:31N 39°14' W 076°34'0 0.0
2015-May-19 18:31N 39°14' W 076°34'0 0.0
2015-May-19 17:31N 39°14' W 076°34'0 0.0
2015-May-19 16:31N 39°14' W 076°34'0 0.0
2015-May-19 15:31N 39°14' W 076°34'0 0.0
2015-May-19 14:31N 39°14' W 076°34'0 0.0
2015-May-19 13:28N 39°14' W 076°34'0 0.0
2015-May-19 12:22N 39°14' W 076°34'0 0.0
2015-May-19 11:31N 39°14' W 076°34'0 0.0
2015-May-19 10:31N 39°14' W 076°34'0 0.0
2015-May-19 09:31N 39°14' W 076°34'0 0.0
2015-May-19 08:31N 39°14' W 076°34'0 0.0
2015-May-19 07:31N 39°14' W 076°34'0 0.0
2015-May-19 06:31N 39°14' W 076°34'0 0.0
2015-May-19 05:28N 39°14' W 076°34'0 0.0
2015-May-19 04:31N 39°14' W 076°34'0 0.0
2015-May-19 03:31N 39°14' W 076°34'0 0.0
2015-May-19 02:31N 39°14' W 076°34'0 0.0
2015-May-19 01:31N 39°14' W 076°34'0 0.0
2015-May-19 00:28N 39°14' W 076°34'0 0.0
2015-May-18 23:28N 39°14' W 076°34'0 0.0
2015-May-18 22:31N 39°14' W 076°34'0 0.0
2015-May-18 21:31N 39°14' W 076°34'0 0.0
2015-May-18 20:31N 39°14' W 076°34'0 0.0
2015-May-18 19:10N 39°14' W 076°34'0 0.0
2015-May-18 18:31N 39°14' W 076°34'0 0.0
2015-May-18 17:28N 39°14' W 076°34'0 0.0
2015-May-18 16:31N 39°14' W 076°34'0 0.0
2015-May-18 15:31N 39°14' W 076°34'0 0.0
2015-May-18 14:28N 39°14' W 076°34'0 0.0
2015-May-18 13:25N 39°14' W 076°34'0 0.0
2015-May-18 12:28N 39°14' W 076°34'0 0.0
2015-May-18 11:31N 39°14' W 076°34'0 0.0
2015-May-18 10:31N 39°14' W 076°34'0 0.0
2015-May-18 09:31N 39°14' W 076°34'0 0.0
2015-May-18 08:31N 39°14' W 076°34'0 0.0
2015-May-18 07:31N 39°14' W 076°34'0 0.0
2015-May-18 06:31N 39°14' W 076°34'0 0.0
2015-May-18 05:28N 39°14' W 076°34'0 0.0
2015-May-18 04:31N 39°14' W 076°34'0 0.0
2015-May-18 03:31N 39°14' W 076°34'0 0.0
2015-May-18 02:31N 39°14' W 076°34'0 0.0
2015-May-18 01:31N 39°14' W 076°34'0 0.0
2015-May-18 00:31N 39°14' W 076°34'0 0.0
2015-May-17 23:31N 39°14' W 076°34'0 0.0
2015-May-17 22:31N 39°14' W 076°34'1 1.1
2015-May-17 21:34N 39°14' W 076°33'1110.8
2015-May-17 20:31N 39°05' W 076°24'1616.3
2015-May-17 19:32N 38°49' W 076°25'  
Track history (hours):
 
Tides and Currents Weather Stations Pressure Air Temp Water Temp Dewpoint Dewpoint Depression Visibility Wind Speed Wind Dir Waves Ship Positions

Sincerity Ace

Last reported at 2015-May-27 18:12 UTC. Time now 2015-May-28 16:10 UTC.
Position N 25°46' W 079°31'.

Length 200 m; draft 8.4 m.

Type: Cargo ship. MMSI: 351690000.

Date/timePositionNaut miles runAvg speedWind from/ knotsBaromVisibWave heightAir tempDewpointWater temp
2015-May-27 18:12N 25°46' W 079°31'1015.5
2015-May-27 17:33N 25°56' W 079°29'1515.4
2015-May-27 16:33N 26°11' W 079°26'317 9.0
2015-May-26 05:31N 31°08' W 081°32'  
2015-May-23 12:11N 35°13' W 074°54'17115.9
2015-May-23 01:26N 37°53' W 076°09'5714.4
2015-May-22 21:26N 38°49' W 076°24'2513.2
2015-May-22 19:33N 39°13' W 076°32'1 1.0
2015-May-22 18:32N 39°14' W 076°32'0 0.0
2015-May-22 17:32N 39°14' W 076°32'0 0.0
2015-May-22 16:33N 39°14' W 076°32'0 0.0
2015-May-22 15:32N 39°14' W 076°32'0 0.0
2015-May-22 14:32N 39°14' W 076°32'0 0.0
2015-May-22 13:32N 39°14' W 076°32'0 0.0
2015-May-22 12:32N 39°14' W 076°32'0 0.0
2015-May-22 11:32N 39°14' W 076°32'0 0.0
2015-May-22 10:32N 39°14' W 076°32'0 0.0
2015-May-22 09:32N 39°14' W 076°32'0 0.0
2015-May-22 08:32N 39°14' W 076°32'0 0.0
2015-May-22 07:29N 39°14' W 076°32'0 0.0
2015-May-22 06:32N 39°14' W 076°32'0 0.0
2015-May-22 05:29N 39°14' W 076°32'0 0.0
2015-May-22 04:32N 39°14' W 076°32'0 0.0
2015-May-22 03:32N 39°14' W 076°32'0 0.0
2015-May-22 02:32N 39°14' W 076°32'0 0.0
2015-May-22 01:29N 39°14' W 076°32'0 0.0
2015-May-22 00:26N 39°14' W 076°32'0 0.0
2015-May-21 23:32N 39°14' W 076°32'4 3.6
2015-May-21 22:33N 39°12' W 076°29'15 2.9
2015-May-21 17:23N 38°57' W 076°24'0 0.0
2015-May-21 12:32N 38°57' W 076°24'0 0.0
2015-May-21 11:17N 38°57' W 076°24'0 0.0
2015-May-21 10:26N 38°57' W 076°24'0 0.0
2015-May-21 09:26N 38°57' W 076°24'0 0.0
2015-May-21 08:29N 38°57' W 076°24'0 0.0
2015-May-21 07:14N 38°57' W 076°24'0 0.0
2015-May-21 05:32N 38°57' W 076°24'0 0.0
2015-May-21 04:05N 38°57' W 076°24'0 0.0
2015-May-21 03:23N 38°57' W 076°24'0 0.0
2015-May-21 01:29N 38°57' W 076°24'0 0.0
2015-May-20 04:29N 38°57' W 076°24'0 0.0
2015-May-20 03:32N 38°57' W 076°24'0 0.0
2015-May-20 02:32N 38°57' W 076°24'0 0.0
2015-May-20 01:32N 38°57' W 076°24'0 0.0
2015-May-20 00:32N 38°57' W 076°24'4 3.8
2015-May-19 23:33N 39°01' W 076°22'1211.9
2015-May-19 22:33N 39°12' W 076°29'5 4.4
2015-May-19 21:31N 39°14' W 076°34'0 0.0
2015-May-19 20:31N 39°14' W 076°34'0 0.0
2015-May-19 19:31N 39°14' W 076°34'0 0.0
2015-May-19 18:31N 39°14' W 076°34'0 0.0
2015-May-19 17:31N 39°14' W 076°34'0 0.0
2015-May-19 16:31N 39°14' W 076°34'0 0.0
2015-May-19 15:31N 39°14' W 076°34'0 0.0
2015-May-19 14:31N 39°14' W 076°34'0 0.0
2015-May-19 13:28N 39°14' W 076°34'0 0.0
2015-May-19 12:22N 39°14' W 076°34'0 0.0
2015-May-19 11:31N 39°14' W 076°34'0 0.0
2015-May-19 10:31N 39°14' W 076°34'0 0.0
2015-May-19 09:31N 39°14' W 076°34'0 0.0
2015-May-19 08:31N 39°14' W 076°34'0 0.0
2015-May-19 07:31N 39°14' W 076°34'0 0.0
2015-May-19 06:31N 39°14' W 076°34'0 0.0
2015-May-19 05:28N 39°14' W 076°34'0 0.0
2015-May-19 04:31N 39°14' W 076°34'0 0.0
2015-May-19 03:31N 39°14' W 076°34'0 0.0
2015-May-19 02:31N 39°14' W 076°34'0 0.0
2015-May-19 01:31N 39°14' W 076°34'0 0.0
2015-May-19 00:28N 39°14' W 076°34'0 0.0
2015-May-18 23:28N 39°14' W 076°34'0 0.0
2015-May-18 22:31N 39°14' W 076°34'0 0.0
2015-May-18 21:31N 39°14' W 076°34'0 0.0
2015-May-18 20:31N 39°14' W 076°34'0 0.0
2015-May-18 19:10N 39°14' W 076°34'0 0.0
2015-May-18 18:31N 39°14' W 076°34'0 0.0
2015-May-18 17:28N 39°14' W 076°34'0 0.0
2015-May-18 16:31N 39°14' W 076°34'0 0.0
2015-May-18 15:31N 39°14' W 076°34'0 0.0
2015-May-18 14:28N 39°14' W 076°34'0 0.0
2015-May-18 13:25N 39°14' W 076°34'0 0.0
2015-May-18 12:28N 39°14' W 076°34'0 0.0
2015-May-18 11:31N 39°14' W 076°34'0 0.0
2015-May-18 10:31N 39°14' W 076°34'0 0.0
2015-May-18 09:31N 39°14' W 076°34'0 0.0
2015-May-18 08:31N 39°14' W 076°34'0 0.0
2015-May-18 07:31N 39°14' W 076°34'0 0.0
2015-May-18 06:31N 39°14' W 076°34'0 0.0
2015-May-18 05:28N 39°14' W 076°34'0 0.0
2015-May-18 04:31N 39°14' W 076°34'0 0.0
2015-May-18 03:31N 39°14' W 076°34'0 0.0
2015-May-18 02:31N 39°14' W 076°34'0 0.0
2015-May-18 01:31N 39°14' W 076°34'0 0.0
2015-May-18 00:31N 39°14' W 076°34'0 0.0
2015-May-17 23:31N 39°14' W 076°34'0 0.0
2015-May-17 22:31N 39°14' W 076°34'1 1.1
2015-May-17 21:34N 39°14' W 076°33'1110.8
2015-May-17 20:31N 39°05' W 076°24'1616.3
2015-May-17 19:32N 38°49' W 076°25'  

Dump ship's entire track history